sensor_id;sensor_type;location;lat;lon;timestamp;P1;durP1;ratioP1;P2;durP2;ratioP2
11931;SDS011;6025;51.368;6.788;2023-07-31T00:04:41;8.32;;;3.50;;
11931;SDS011;6025;51.368;6.788;2023-07-31T00:09:34;6.65;;;3.50;;
11931;SDS011;6025;51.368;6.788;2023-07-31T00:14:25;5.57;;;3.15;;
11931;SDS011;6025;51.368;6.788;2023-07-31T00:19:17;7.35;;;3.38;;
11931;SDS011;6025;51.368;6.788;2023-07-31T00:24:08;6.70;;;3.03;;
11931;SDS011;6025;51.368;6.788;2023-07-31T00:29:01;7.22;;;3.08;;
11931;SDS011;6025;51.368;6.788;2023-07-31T00:33:52;7.13;;;3.30;;
11931;SDS011;6025;51.368;6.788;2023-07-31T00:38:44;8.02;;;3.60;;
11931;SDS011;6025;51.368;6.788;2023-07-31T00:43:36;6.85;;;3.42;;
11931;SDS011;6025;51.368;6.788;2023-07-31T00:48:28;6.97;;;3.28;;
11931;SDS011;6025;51.368;6.788;2023-07-31T00:53:20;8.05;;;3.25;;
11931;SDS011;6025;51.368;6.788;2023-07-31T00:58:12;6.32;;;3.30;;
11931;SDS011;6025;51.368;6.788;2023-07-31T01:03:03;7.18;;;3.40;;
11931;SDS011;6025;51.368;6.788;2023-07-31T01:07:59;6.82;;;3.10;;
11931;SDS011;6025;51.368;6.788;2023-07-31T01:12:56;7.53;;;2.95;;
11931;SDS011;6025;51.368;6.788;2023-07-31T01:17:48;8.60;;;3.40;;
11931;SDS011;6025;51.368;6.788;2023-07-31T01:22:49;6.13;;;2.80;;
11931;SDS011;6025;51.368;6.788;2023-07-31T01:28:03;7.57;;;3.10;;
11931;SDS011;6025;51.368;6.788;2023-07-31T01:32:56;5.75;;;2.90;;
11931;SDS011;6025;51.368;6.788;2023-07-31T01:37:48;6.78;;;2.97;;
11931;SDS011;6025;51.368;6.788;2023-07-31T01:42:40;5.95;;;3.05;;
11931;SDS011;6025;51.368;6.788;2023-07-31T01:47:33;6.03;;;2.75;;
11931;SDS011;6025;51.368;6.788;2023-07-31T01:52:24;7.25;;;3.22;;
11931;SDS011;6025;51.368;6.788;2023-07-31T01:57:16;5.75;;;2.60;;
11931;SDS011;6025;51.368;6.788;2023-07-31T02:02:07;6.35;;;3.15;;
11931;SDS011;6025;51.368;6.788;2023-07-31T02:07:00;5.78;;;3.00;;
11931;SDS011;6025;51.368;6.788;2023-07-31T02:11:52;7.28;;;3.17;;
11931;SDS011;6025;51.368;6.788;2023-07-31T02:16:43;4.90;;;2.95;;
11931;SDS011;6025;51.368;6.788;2023-07-31T02:21:35;9.57;;;3.17;;
11931;SDS011;6025;51.368;6.788;2023-07-31T02:26:27;6.40;;;2.70;;
11931;SDS011;6025;51.368;6.788;2023-07-31T02:31:19;6.75;;;3.00;;
11931;SDS011;6025;51.368;6.788;2023-07-31T02:36:10;7.25;;;3.05;;
11931;SDS011;6025;51.368;6.788;2023-07-31T02:41:02;6.03;;;3.10;;
11931;SDS011;6025;51.368;6.788;2023-07-31T02:45:55;9.90;;;3.00;;
11931;SDS011;6025;51.368;6.788;2023-07-31T02:50:46;6.07;;;2.78;;
11931;SDS011;6025;51.368;6.788;2023-07-31T02:55:38;9.00;;;2.92;;
11931;SDS011;6025;51.368;6.788;2023-07-31T03:00:30;8.90;;;3.42;;
11931;SDS011;6025;51.368;6.788;2023-07-31T03:05:22;7.22;;;3.03;;
11931;SDS011;6025;51.368;6.788;2023-07-31T03:10:14;6.82;;;2.95;;
11931;SDS011;6025;51.368;6.788;2023-07-31T03:15:06;8.25;;;3.25;;
11931;SDS011;6025;51.368;6.788;2023-07-31T03:19:59;7.28;;;2.80;;
11931;SDS011;6025;51.368;6.788;2023-07-31T03:24:51;5.45;;;3.10;;
11931;SDS011;6025;51.368;6.788;2023-07-31T03:29:43;6.10;;;2.70;;
11931;SDS011;6025;51.368;6.788;2023-07-31T03:34:35;7.55;;;2.78;;
11931;SDS011;6025;51.368;6.788;2023-07-31T03:39:26;4.78;;;2.75;;
11931;SDS011;6025;51.368;6.788;2023-07-31T03:44:19;6.20;;;2.85;;
11931;SDS011;6025;51.368;6.788;2023-07-31T03:49:11;5.45;;;2.80;;
11931;SDS011;6025;51.368;6.788;2023-07-31T03:54:02;5.95;;;2.80;;
11931;SDS011;6025;51.368;6.788;2023-07-31T03:58:54;4.72;;;2.72;;
11931;SDS011;6025;51.368;6.788;2023-07-31T04:03:47;4.47;;;2.70;;
11931;SDS011;6025;51.368;6.788;2023-07-31T04:08:38;5.13;;;2.80;;
11931;SDS011;6025;51.368;6.788;2023-07-31T04:13:30;5.43;;;3.15;;
11931;SDS011;6025;51.368;6.788;2023-07-31T04:18:21;7.63;;;3.17;;
11931;SDS011;6025;51.368;6.788;2023-07-31T04:23:14;7.70;;;2.88;;
11931;SDS011;6025;51.368;6.788;2023-07-31T04:28:06;6.70;;;2.90;;
11931;SDS011;6025;51.368;6.788;2023-07-31T04:32:57;7.07;;;2.92;;
11931;SDS011;6025;51.368;6.788;2023-07-31T04:37:49;5.45;;;2.70;;
11931;SDS011;6025;51.368;6.788;2023-07-31T04:42:42;3.88;;;2.70;;
11931;SDS011;6025;51.368;6.788;2023-07-31T04:47:33;5.32;;;3.03;;
11931;SDS011;6025;51.368;6.788;2023-07-31T04:52:25;4.80;;;2.90;;
11931;SDS011;6025;51.368;6.788;2023-07-31T04:57:16;5.82;;;2.83;;
11931;SDS011;6025;51.368;6.788;2023-07-31T05:02:11;5.35;;;3.08;;
11931;SDS011;6025;51.368;6.788;2023-07-31T05:07:03;5.00;;;2.90;;
11931;SDS011;6025;51.368;6.788;2023-07-31T05:11:55;4.88;;;3.28;;
11931;SDS011;6025;51.368;6.788;2023-07-31T05:16:46;6.10;;;3.17;;
11931;SDS011;6025;51.368;6.788;2023-07-31T05:21:39;6.53;;;3.10;;
11931;SDS011;6025;51.368;6.788;2023-07-31T05:26:31;7.28;;;3.35;;
11931;SDS011;6025;51.368;6.788;2023-07-31T05:31:22;6.82;;;3.03;;
11931;SDS011;6025;51.368;6.788;2023-07-31T05:36:14;6.57;;;3.00;;
11931;SDS011;6025;51.368;6.788;2023-07-31T05:41:07;4.63;;;2.72;;
11931;SDS011;6025;51.368;6.788;2023-07-31T05:45:59;4.30;;;3.30;;
11931;SDS011;6025;51.368;6.788;2023-07-31T05:50:51;4.65;;;3.00;;
11931;SDS011;6025;51.368;6.788;2023-07-31T05:55:42;4.28;;;2.90;;
11931;SDS011;6025;51.368;6.788;2023-07-31T06:00:35;4.47;;;3.08;;
11931;SDS011;6025;51.368;6.788;2023-07-31T06:05:27;5.03;;;3.25;;
11931;SDS011;6025;51.368;6.788;2023-07-31T06:10:20;8.82;;;3.45;;
11931;SDS011;6025;51.368;6.788;2023-07-31T06:15:11;6.63;;;3.10;;
11931;SDS011;6025;51.368;6.788;2023-07-31T06:20:05;4.30;;;2.80;;
11931;SDS011;6025;51.368;6.788;2023-07-31T06:24:58;4.85;;;2.92;;
11931;SDS011;6025;51.368;6.788;2023-07-31T06:29:49;5.07;;;3.30;;
11931;SDS011;6025;51.368;6.788;2023-07-31T06:34:41;5.72;;;3.50;;
11931;SDS011;6025;51.368;6.788;2023-07-31T06:39:34;4.22;;;2.90;;
11931;SDS011;6025;51.368;6.788;2023-07-31T06:44:25;5.43;;;3.35;;
11931;SDS011;6025;51.368;6.788;2023-07-31T06:49:17;4.95;;;3.13;;
11931;SDS011;6025;51.368;6.788;2023-07-31T06:54:08;5.40;;;3.30;;
11931;SDS011;6025;51.368;6.788;2023-07-31T06:59:01;6.53;;;3.20;;
11931;SDS011;6025;51.368;6.788;2023-07-31T07:03:54;4.85;;;2.90;;
11931;SDS011;6025;51.368;6.788;2023-07-31T07:08:45;6.18;;;3.33;;
11931;SDS011;6025;51.368;6.788;2023-07-31T07:13:37;5.40;;;3.38;;
11931;SDS011;6025;51.368;6.788;2023-07-31T07:18:30;4.50;;;3.00;;
11931;SDS011;6025;51.368;6.788;2023-07-31T07:23:22;5.28;;;3.25;;
11931;SDS011;6025;51.368;6.788;2023-07-31T07:28:13;8.95;;;3.42;;
11931;SDS011;6025;51.368;6.788;2023-07-31T07:33:05;5.03;;;3.22;;
11931;SDS011;6025;51.368;6.788;2023-07-31T07:37:58;6.72;;;3.47;;
11931;SDS011;6025;51.368;6.788;2023-07-31T07:42:50;5.38;;;3.38;;
11931;SDS011;6025;51.368;6.788;2023-07-31T07:47:42;5.28;;;3.58;;
11931;SDS011;6025;51.368;6.788;2023-07-31T07:52:33;7.15;;;3.38;;
11931;SDS011;6025;51.368;6.788;2023-07-31T07:57:26;5.03;;;3.22;;
11931;SDS011;6025;51.368;6.788;2023-07-31T08:02:18;5.07;;;3.17;;
11931;SDS011;6025;51.368;6.788;2023-07-31T08:07:10;3.83;;;2.60;;
11931;SDS011;6025;51.368;6.788;2023-07-31T08:12:02;5.32;;;3.10;;
11931;SDS011;6025;51.368;6.788;2023-07-31T08:16:55;4.38;;;2.85;;
11931;SDS011;6025;51.368;6.788;2023-07-31T08:21:47;5.50;;;2.80;;
11931;SDS011;6025;51.368;6.788;2023-07-31T08:26:38;4.55;;;2.80;;
11931;SDS011;6025;51.368;6.788;2023-07-31T08:31:30;4.45;;;2.40;;
11931;SDS011;6025;51.368;6.788;2023-07-31T08:36:23;5.22;;;2.72;;
11931;SDS011;6025;51.368;6.788;2023-07-31T08:41:14;4.00;;;2.50;;
11931;SDS011;6025;51.368;6.788;2023-07-31T08:46:07;3.97;;;2.55;;
11931;SDS011;6025;51.368;6.788;2023-07-31T08:50:59;6.07;;;2.80;;
11931;SDS011;6025;51.368;6.788;2023-07-31T08:55:53;3.15;;;2.40;;
11931;SDS011;6025;51.368;6.788;2023-07-31T09:00:46;3.45;;;2.50;;
11931;SDS011;6025;51.368;6.788;2023-07-31T09:05:38;4.00;;;2.55;;
11931;SDS011;6025;51.368;6.788;2023-07-31T09:10:30;3.88;;;2.63;;
11931;SDS011;6025;51.368;6.788;2023-07-31T09:15:23;4.03;;;2.60;;
11931;SDS011;6025;51.368;6.788;2023-07-31T09:20:15;3.72;;;2.83;;
11931;SDS011;6025;51.368;6.788;2023-07-31T09:25:13;4.45;;;2.90;;
11931;SDS011;6025;51.368;6.788;2023-07-31T09:30:06;3.40;;;2.38;;
11931;SDS011;6025;51.368;6.788;2023-07-31T09:35:00;4.72;;;2.53;;
11931;SDS011;6025;51.368;6.788;2023-07-31T09:39:51;4.38;;;2.60;;
11931;SDS011;6025;51.368;6.788;2023-07-31T09:44:49;2.80;;;2.47;;
11931;SDS011;6025;51.368;6.788;2023-07-31T09:49:45;3.58;;;2.47;;
11931;SDS011;6025;51.368;6.788;2023-07-31T09:54:38;3.65;;;2.33;;
11931;SDS011;6025;51.368;6.788;2023-07-31T09:59:29;3.67;;;2.42;;
11931;SDS011;6025;51.368;6.788;2023-07-31T10:04:21;3.80;;;2.80;;
11931;SDS011;6025;51.368;6.788;2023-07-31T10:09:17;3.15;;;2.22;;
11931;SDS011;6025;51.368;6.788;2023-07-31T10:14:11;3.35;;;2.47;;
11931;SDS011;6025;51.368;6.788;2023-07-31T10:19:03;5.78;;;2.58;;
11931;SDS011;6025;51.368;6.788;2023-07-31T10:23:54;4.40;;;2.70;;
11931;SDS011;6025;51.368;6.788;2023-07-31T10:28:46;3.75;;;2.47;;
11931;SDS011;6025;51.368;6.788;2023-07-31T10:33:40;4.50;;;2.53;;
11931;SDS011;6025;51.368;6.788;2023-07-31T10:38:32;4.80;;;2.40;;
11931;SDS011;6025;51.368;6.788;2023-07-31T10:43:24;5.75;;;2.88;;
11931;SDS011;6025;51.368;6.788;2023-07-31T10:48:17;4.60;;;2.78;;
11931;SDS011;6025;51.368;6.788;2023-07-31T10:53:10;6.05;;;3.40;;
11931;SDS011;6025;51.368;6.788;2023-07-31T10:58:13;4.53;;;3.50;;
11931;SDS011;6025;51.368;6.788;2023-07-31T11:03:06;4.53;;;2.92;;
11931;SDS011;6025;51.368;6.788;2023-07-31T11:07:59;4.30;;;2.67;;
11931;SDS011;6025;51.368;6.788;2023-07-31T11:12:51;3.50;;;2.55;;
11931;SDS011;6025;51.368;6.788;2023-07-31T11:17:43;5.10;;;2.97;;
11931;SDS011;6025;51.368;6.788;2023-07-31T11:22:35;4.18;;;2.60;;
11931;SDS011;6025;51.368;6.788;2023-07-31T11:27:27;4.18;;;2.50;;
11931;SDS011;6025;51.368;6.788;2023-07-31T11:32:20;3.28;;;2.17;;
11931;SDS011;6025;51.368;6.788;2023-07-31T11:37:12;4.05;;;2.00;;
11931;SDS011;6025;51.368;6.788;2023-07-31T11:42:04;3.83;;;2.30;;
11931;SDS011;6025;51.368;6.788;2023-07-31T11:46:56;3.25;;;2.25;;
11931;SDS011;6025;51.368;6.788;2023-07-31T11:51:49;2.75;;;2.10;;
11931;SDS011;6025;51.368;6.788;2023-07-31T11:56:40;2.83;;;2.05;;
11931;SDS011;6025;51.368;6.788;2023-07-31T12:01:32;3.80;;;1.90;;
11931;SDS011;6025;51.368;6.788;2023-07-31T12:06:32;3.10;;;1.88;;
11931;SDS011;6025;51.368;6.788;2023-07-31T12:11:25;2.08;;;1.67;;
11931;SDS011;6025;51.368;6.788;2023-07-31T12:16:16;3.28;;;1.85;;
11931;SDS011;6025;51.368;6.788;2023-07-31T12:21:08;1.63;;;1.50;;
11931;SDS011;6025;51.368;6.788;2023-07-31T12:26:02;2.83;;;1.90;;
11931;SDS011;6025;51.368;6.788;2023-07-31T12:30:57;3.45;;;1.95;;
11931;SDS011;6025;51.368;6.788;2023-07-31T12:35:50;2.08;;;1.75;;
11931;SDS011;6025;51.368;6.788;2023-07-31T12:40:41;2.22;;;1.52;;
11931;SDS011;6025;51.368;6.788;2023-07-31T12:45:33;3.42;;;1.60;;
11931;SDS011;6025;51.368;6.788;2023-07-31T12:50:26;1.88;;;1.48;;
11931;SDS011;6025;51.368;6.788;2023-07-31T12:55:18;1.95;;;1.50;;
11931;SDS011;6025;51.368;6.788;2023-07-31T13:00:10;2.08;;;1.70;;
11931;SDS011;6025;51.368;6.788;2023-07-31T13:05:03;2.92;;;2.00;;
11931;SDS011;6025;51.368;6.788;2023-07-31T13:09:56;2.00;;;1.63;;
11931;SDS011;6025;51.368;6.788;2023-07-31T13:14:47;2.67;;;1.60;;
11931;SDS011;6025;51.368;6.788;2023-07-31T13:19:39;2.70;;;1.90;;
11931;SDS011;6025;51.368;6.788;2023-07-31T13:24:30;3.50;;;2.00;;
11931;SDS011;6025;51.368;6.788;2023-07-31T13:29:23;2.90;;;2.00;;
11931;SDS011;6025;51.368;6.788;2023-07-31T13:34:15;2.92;;;2.10;;
11931;SDS011;6025;51.368;6.788;2023-07-31T13:39:07;5.30;;;2.78;;
11931;SDS011;6025;51.368;6.788;2023-07-31T13:43:58;3.40;;;2.53;;
11931;SDS011;6025;51.368;6.788;2023-07-31T13:48:51;4.10;;;2.55;;
11931;SDS011;6025;51.368;6.788;2023-07-31T13:53:44;4.80;;;2.85;;
11931;SDS011;6025;51.368;6.788;2023-07-31T13:58:36;4.50;;;2.53;;
11931;SDS011;6025;51.368;6.788;2023-07-31T14:03:27;2.80;;;2.50;;
11931;SDS011;6025;51.368;6.788;2023-07-31T14:08:20;5.85;;;2.80;;
11931;SDS011;6025;51.368;6.788;2023-07-31T14:13:12;3.53;;;2.65;;
11931;SDS011;6025;51.368;6.788;2023-07-31T14:18:03;4.93;;;2.15;;
11931;SDS011;6025;51.368;6.788;2023-07-31T14:22:55;2.78;;;2.30;;
11931;SDS011;6025;51.368;6.788;2023-07-31T14:27:48;3.72;;;2.20;;
11931;SDS011;6025;51.368;6.788;2023-07-31T14:32:39;3.97;;;2.40;;
11931;SDS011;6025;51.368;6.788;2023-07-31T14:37:36;4.60;;;2.83;;
11931;SDS011;6025;51.368;6.788;2023-07-31T14:42:27;2.60;;;2.10;;
11931;SDS011;6025;51.368;6.788;2023-07-31T14:47:20;3.33;;;2.42;;
11931;SDS011;6025;51.368;6.788;2023-07-31T14:52:12;3.90;;;2.60;;
11931;SDS011;6025;51.368;6.788;2023-07-31T14:57:04;3.90;;;2.55;;
11931;SDS011;6025;51.368;6.788;2023-07-31T15:01:56;4.63;;;2.30;;
11931;SDS011;6025;51.368;6.788;2023-07-31T15:06:50;2.78;;;2.17;;
11931;SDS011;6025;51.368;6.788;2023-07-31T15:11:41;2.72;;;2.20;;
11931;SDS011;6025;51.368;6.788;2023-07-31T15:16:33;3.13;;;2.30;;
11931;SDS011;6025;51.368;6.788;2023-07-31T15:21:24;3.30;;;2.25;;
11931;SDS011;6025;51.368;6.788;2023-07-31T15:26:17;3.75;;;2.50;;
11931;SDS011;6025;51.368;6.788;2023-07-31T15:31:09;4.43;;;2.58;;
11931;SDS011;6025;51.368;6.788;2023-07-31T15:36:00;3.95;;;2.60;;
11931;SDS011;6025;51.368;6.788;2023-07-31T15:40:52;3.60;;;2.60;;
11931;SDS011;6025;51.368;6.788;2023-07-31T15:45:45;4.05;;;2.58;;
11931;SDS011;6025;51.368;6.788;2023-07-31T15:50:36;5.05;;;2.67;;
11931;SDS011;6025;51.368;6.788;2023-07-31T15:55:28;5.70;;;3.15;;
11931;SDS011;6025;51.368;6.788;2023-07-31T16:00:19;3.75;;;2.55;;
11931;SDS011;6025;51.368;6.788;2023-07-31T16:05:12;3.42;;;2.67;;
11931;SDS011;6025;51.368;6.788;2023-07-31T16:10:04;4.03;;;2.90;;
11931;SDS011;6025;51.368;6.788;2023-07-31T16:14:57;4.47;;;3.05;;
11931;SDS011;6025;51.368;6.788;2023-07-31T16:19:48;4.57;;;3.10;;
11931;SDS011;6025;51.368;6.788;2023-07-31T16:24:41;4.72;;;3.03;;
11931;SDS011;6025;51.368;6.788;2023-07-31T16:29:33;3.17;;;2.63;;
11931;SDS011;6025;51.368;6.788;2023-07-31T16:34:24;4.85;;;2.88;;
11931;SDS011;6025;51.368;6.788;2023-07-31T16:39:16;4.88;;;3.17;;
11931;SDS011;6025;51.368;6.788;2023-07-31T16:44:09;4.57;;;3.15;;
11931;SDS011;6025;51.368;6.788;2023-07-31T16:49:02;4.20;;;2.92;;
11931;SDS011;6025;51.368;6.788;2023-07-31T16:53:53;4.80;;;2.60;;
11931;SDS011;6025;51.368;6.788;2023-07-31T16:58:45;3.53;;;2.78;;
11931;SDS011;6025;51.368;6.788;2023-07-31T17:03:38;2.58;;;2.03;;
11931;SDS011;6025;51.368;6.788;2023-07-31T17:08:30;3.35;;;2.13;;
11931;SDS011;6025;51.368;6.788;2023-07-31T17:13:21;2.88;;;2.13;;
11931;SDS011;6025;51.368;6.788;2023-07-31T17:18:13;3.83;;;2.28;;
11931;SDS011;6025;51.368;6.788;2023-07-31T17:23:06;3.17;;;2.17;;
11931;SDS011;6025;51.368;6.788;2023-07-31T17:27:57;2.75;;;2.13;;
11931;SDS011;6025;51.368;6.788;2023-07-31T17:32:49;2.88;;;1.95;;
11931;SDS011;6025;51.368;6.788;2023-07-31T17:37:41;2.35;;;2.03;;
11931;SDS011;6025;51.368;6.788;2023-07-31T17:42:33;2.78;;;1.90;;
11931;SDS011;6025;51.368;6.788;2023-07-31T17:47:25;2.83;;;2.08;;
11931;SDS011;6025;51.368;6.788;2023-07-31T17:52:16;2.95;;;1.90;;
11931;SDS011;6025;51.368;6.788;2023-07-31T17:57:08;2.55;;;1.92;;
11931;SDS011;6025;51.368;6.788;2023-07-31T18:02:01;3.75;;;2.13;;
11931;SDS011;6025;51.368;6.788;2023-07-31T18:06:52;3.85;;;1.90;;
11931;SDS011;6025;51.368;6.788;2023-07-31T18:11:44;3.92;;;2.22;;
11931;SDS011;6025;51.368;6.788;2023-07-31T18:16:35;2.90;;;2.40;;
11931;SDS011;6025;51.368;6.788;2023-07-31T18:21:28;2.70;;;2.15;;
11931;SDS011;6025;51.368;6.788;2023-07-31T18:26:23;3.67;;;2.08;;
11931;SDS011;6025;51.368;6.788;2023-07-31T18:31:15;2.78;;;2.05;;
11931;SDS011;6025;51.368;6.788;2023-07-31T18:36:06;2.88;;;1.90;;
11931;SDS011;6025;51.368;6.788;2023-07-31T18:40:59;3.05;;;1.70;;
11931;SDS011;6025;51.368;6.788;2023-07-31T18:45:51;2.42;;;1.80;;
11931;SDS011;6025;51.368;6.788;2023-07-31T18:50:42;2.70;;;1.60;;
11931;SDS011;6025;51.368;6.788;2023-07-31T18:55:34;2.22;;;1.73;;
11931;SDS011;6025;51.368;6.788;2023-07-31T19:00:27;2.85;;;1.50;;
11931;SDS011;6025;51.368;6.788;2023-07-31T19:05:18;2.15;;;1.45;;
11931;SDS011;6025;51.368;6.788;2023-07-31T19:10:11;1.40;;;1.20;;
11931;SDS011;6025;51.368;6.788;2023-07-31T19:15:03;2.47;;;1.55;;
11931;SDS011;6025;51.368;6.788;2023-07-31T19:19:56;1.98;;;1.15;;
11931;SDS011;6025;51.368;6.788;2023-07-31T19:24:47;4.03;;;1.38;;
11931;SDS011;6025;51.368;6.788;2023-07-31T19:29:39;2.58;;;1.30;;
11931;SDS011;6025;51.368;6.788;2023-07-31T19:34:30;2.05;;;1.13;;
11931;SDS011;6025;51.368;6.788;2023-07-31T19:39:23;1.95;;;1.02;;
11931;SDS011;6025;51.368;6.788;2023-07-31T19:44:15;1.30;;;1.10;;
11931;SDS011;6025;51.368;6.788;2023-07-31T19:49:07;1.23;;;1.00;;
11931;SDS011;6025;51.368;6.788;2023-07-31T19:53:59;1.58;;;1.20;;
11931;SDS011;6025;51.368;6.788;2023-07-31T19:58:52;1.20;;;0.90;;
11931;SDS011;6025;51.368;6.788;2023-07-31T20:03:44;1.17;;;1.05;;
11931;SDS011;6025;51.368;6.788;2023-07-31T20:08:35;1.17;;;1.08;;
11931;SDS011;6025;51.368;6.788;2023-07-31T20:13:27;1.25;;;0.90;;
11931;SDS011;6025;51.368;6.788;2023-07-31T20:18:19;2.75;;;1.15;;
11931;SDS011;6025;51.368;6.788;2023-07-31T20:23:11;2.05;;;1.05;;
11931;SDS011;6025;51.368;6.788;2023-07-31T20:28:03;1.50;;;1.10;;
11931;SDS011;6025;51.368;6.788;2023-07-31T20:32:54;1.17;;;1.00;;
11931;SDS011;6025;51.368;6.788;2023-07-31T20:37:48;1.55;;;1.10;;
11931;SDS011;6025;51.368;6.788;2023-07-31T20:42:39;1.10;;;1.00;;
11931;SDS011;6025;51.368;6.788;2023-07-31T20:47:31;1.60;;;1.05;;
11931;SDS011;6025;51.368;6.788;2023-07-31T20:52:22;1.38;;;1.05;;
11931;SDS011;6025;51.368;6.788;2023-07-31T20:57:15;1.90;;;0.80;;
11931;SDS011;6025;51.368;6.788;2023-07-31T21:02:08;1.10;;;0.70;;
11931;SDS011;6025;51.368;6.788;2023-07-31T21:07:00;1.20;;;0.80;;
11931;SDS011;6025;51.368;6.788;2023-07-31T21:11:51;1.10;;;0.85;;
11931;SDS011;6025;51.368;6.788;2023-07-31T21:16:44;0.80;;;0.70;;
11931;SDS011;6025;51.368;6.788;2023-07-31T21:21:36;1.20;;;0.80;;
11931;SDS011;6025;51.368;6.788;2023-07-31T21:26:27;1.67;;;1.13;;
11931;SDS011;6025;51.368;6.788;2023-07-31T21:31:19;1.25;;;0.80;;
11931;SDS011;6025;51.368;6.788;2023-07-31T21:36:12;1.00;;;0.90;;
11931;SDS011;6025;51.368;6.788;2023-07-31T21:41:03;1.02;;;0.90;;
11931;SDS011;6025;51.368;6.788;2023-07-31T21:45:55;1.63;;;0.90;;
11931;SDS011;6025;51.368;6.788;2023-07-31T21:50:46;1.38;;;0.80;;
11931;SDS011;6025;51.368;6.788;2023-07-31T21:55:39;1.48;;;0.80;;
11931;SDS011;6025;51.368;6.788;2023-07-31T22:00:31;1.02;;;0.82;;
11931;SDS011;6025;51.368;6.788;2023-07-31T22:05:22;1.33;;;0.90;;
11931;SDS011;6025;51.368;6.788;2023-07-31T22:10:14;1.25;;;0.90;;
11931;SDS011;6025;51.368;6.788;2023-07-31T22:15:07;1.10;;;0.93;;
11931;SDS011;6025;51.368;6.788;2023-07-31T22:19:59;1.38;;;0.90;;
11931;SDS011;6025;51.368;6.788;2023-07-31T22:24:51;1.20;;;0.85;;
11931;SDS011;6025;51.368;6.788;2023-07-31T22:29:42;2.17;;;0.95;;
11931;SDS011;6025;51.368;6.788;2023-07-31T22:34:35;1.23;;;0.80;;
11931;SDS011;6025;51.368;6.788;2023-07-31T22:39:27;1.45;;;0.90;;
11931;SDS011;6025;51.368;6.788;2023-07-31T22:44:18;1.77;;;0.80;;
11931;SDS011;6025;51.368;6.788;2023-07-31T22:49:10;1.38;;;0.90;;
11931;SDS011;6025;51.368;6.788;2023-07-31T22:54:03;1.23;;;0.90;;
11931;SDS011;6025;51.368;6.788;2023-07-31T22:58:54;2.67;;;1.10;;
11931;SDS011;6025;51.368;6.788;2023-07-31T23:03:46;2.65;;;0.95;;
11931;SDS011;6025;51.368;6.788;2023-07-31T23:08:38;1.42;;;0.88;;
11931;SDS011;6025;51.368;6.788;2023-07-31T23:13:30;0.98;;;0.80;;
11931;SDS011;6025;51.368;6.788;2023-07-31T23:18:23;1.83;;;1.00;;
11931;SDS011;6025;51.368;6.788;2023-07-31T23:23:14;0.95;;;0.88;;
11931;SDS011;6025;51.368;6.788;2023-07-31T23:28:06;2.13;;;1.00;;
11931;SDS011;6025;51.368;6.788;2023-07-31T23:32:59;1.90;;;1.30;;
11931;SDS011;6025;51.368;6.788;2023-07-31T23:37:50;3.13;;;1.20;;
11931;SDS011;6025;51.368;6.788;2023-07-31T23:42:42;3.50;;;1.40;;
11931;SDS011;6025;51.368;6.788;2023-07-31T23:47:33;2.67;;;1.65;;
11931;SDS011;6025;51.368;6.788;2023-07-31T23:52:26;2.50;;;1.33;;
11931;SDS011;6025;51.368;6.788;2023-07-31T23:57:18;1.33;;;0.90;;
